createdAt,value
2023-01-19T00:01:43.352Z,2.90
2023-01-19T00:04:11.758Z,3.47
2023-01-19T00:06:40.115Z,2.90
2023-01-19T00:09:10.266Z,3.73
2023-01-19T00:11:38.618Z,4.27
2023-01-19T00:14:07.144Z,4.13
2023-01-19T00:16:35.649Z,4.03
2023-01-19T00:19:04.451Z,3.00
2023-01-19T00:21:32.984Z,3.30
2023-01-19T00:24:01.384Z,2.70
2023-01-19T00:26:31.207Z,3.60
2023-01-19T00:29:08.979Z,3.50
2023-01-19T00:31:37.634Z,3.70
2023-01-19T00:34:06.303Z,3.50
2023-01-19T00:36:35.350Z,3.43
2023-01-19T00:39:03.815Z,3.80
2023-01-19T00:41:51.508Z,2.17
2023-01-19T00:44:19.804Z,2.67
2023-01-19T00:46:48.190Z,3.63
2023-01-19T00:49:19.020Z,3.10
2023-01-19T00:51:47.575Z,2.37
2023-01-19T00:54:15.889Z,2.53
2023-01-19T00:56:45.672Z,2.40
2023-01-19T00:59:14.201Z,3.60
2023-01-19T01:01:45.296Z,3.63
2023-01-19T01:04:14.842Z,3.00
2023-01-19T01:06:43.201Z,3.03
2023-01-19T01:09:12.935Z,3.33
2023-01-19T01:11:43.105Z,4.00
2023-01-19T01:14:13.959Z,4.40
2023-01-19T01:16:42.929Z,2.80
2023-01-19T01:19:11.407Z,2.70
2023-01-19T01:21:39.783Z,3.53
2023-01-19T01:24:08.855Z,3.37
2023-01-19T01:26:37.158Z,3.00
2023-01-19T01:29:09.641Z,4.07
2023-01-19T01:31:39.643Z,2.70
2023-01-19T01:34:08.229Z,2.70
2023-01-19T01:36:36.809Z,2.40
2023-01-19T01:39:11.181Z,2.63
2023-01-19T01:41:39.521Z,2.57
2023-01-19T01:44:22.716Z,2.30
2023-01-19T01:46:52.579Z,2.50
2023-01-19T01:49:20.999Z,1.33
2023-01-19T01:51:51.705Z,3.47
2023-01-19T01:54:22.848Z,3.10
2023-01-19T01:56:52.626Z,2.13
2023-01-19T01:59:29.674Z,2.63
2023-01-19T02:02:20.472Z,2.20
2023-01-19T02:04:53.375Z,2.83
2023-01-19T02:07:43.848Z,2.30
2023-01-19T02:10:30.038Z,3.03
2023-01-19T02:13:17.143Z,3.70
2023-01-19T02:15:45.587Z,2.70
2023-01-19T02:18:15.739Z,2.60
2023-01-19T02:20:47.065Z,3.20
2023-01-19T02:23:18.646Z,2.90
2023-01-19T02:25:49.077Z,3.30
2023-01-19T02:28:18.210Z,2.57
2023-01-19T02:30:47.059Z,2.67
2023-01-19T02:33:18.431Z,2.50
2023-01-19T02:35:49.862Z,2.90
2023-01-19T02:38:19.391Z,1.97
2023-01-19T02:40:50.170Z,2.10
2023-01-19T02:43:22.429Z,2.53
2023-01-19T02:45:50.970Z,2.47
2023-01-19T02:48:21.277Z,2.47
2023-01-19T02:50:53.033Z,2.30
2023-01-19T02:53:27.461Z,2.67
2023-01-19T02:55:59.183Z,3.33
2023-01-19T02:58:32.938Z,3.47
2023-01-19T03:01:05.361Z,2.40
2023-01-19T03:03:35.125Z,1.93
2023-01-19T03:06:07.172Z,2.40
2023-01-19T03:08:41.918Z,2.93
2023-01-19T03:11:20.400Z,1.80
2023-01-19T03:13:51.606Z,1.93
2023-01-19T03:16:23.082Z,2.57
2023-01-19T03:18:54.207Z,2.60
2023-01-19T03:21:24.288Z,1.93
2023-01-19T03:23:53.505Z,1.53
2023-01-19T03:26:25.261Z,2.37
2023-01-19T03:29:00.451Z,1.90
2023-01-19T03:31:31.140Z,2.23
2023-01-19T03:34:05.676Z,2.10
2023-01-19T03:36:43.661Z,1.73
2023-01-19T03:39:13.182Z,1.67
2023-01-19T03:41:44.059Z,1.53
2023-01-19T03:44:13.649Z,2.67
2023-01-19T03:46:42.291Z,2.30
2023-01-19T03:49:11.565Z,2.70
2023-01-19T03:51:40.800Z,2.57
2023-01-19T03:54:10.238Z,2.00
2023-01-19T03:56:39.259Z,2.90
2023-01-19T03:59:09.520Z,2.73
2023-01-19T04:01:37.960Z,2.70
2023-01-19T04:04:06.799Z,3.10
2023-01-19T04:06:35.776Z,2.93
2023-01-19T04:09:04.165Z,3.50
2023-01-19T04:11:32.611Z,2.90
2023-01-19T04:14:01.667Z,3.87
2023-01-19T04:16:32.028Z,2.80
2023-01-19T04:19:01.332Z,3.60
2023-01-19T04:21:30.012Z,2.50
2023-01-19T04:23:59.082Z,3.90
2023-01-19T04:26:27.828Z,3.10
2023-01-19T04:28:56.316Z,3.07
2023-01-19T04:31:24.762Z,3.00
2023-01-19T04:33:54.745Z,2.70
2023-01-19T04:36:23.149Z,3.10
2023-01-19T04:38:51.885Z,3.80
2023-01-19T04:41:20.396Z,3.27
2023-01-19T04:43:49.089Z,3.60
2023-01-19T04:46:18.268Z,3.20
2023-01-19T04:48:46.622Z,3.20
2023-01-19T04:51:16.481Z,3.03
2023-01-19T04:53:45.073Z,3.30
2023-01-19T04:56:13.645Z,3.30
2023-01-19T04:58:42.572Z,3.00
2023-01-19T05:01:11.411Z,3.93
2023-01-19T05:03:40.204Z,3.33
2023-01-19T05:06:08.903Z,3.10
2023-01-19T05:08:38.819Z,2.73
2023-01-19T05:11:09.731Z,3.50
2023-01-19T05:13:38.603Z,3.50
2023-01-19T05:16:14.018Z,3.30
2023-01-19T05:18:42.770Z,4.13
2023-01-19T05:21:11.446Z,2.97
2023-01-19T05:23:41.400Z,3.20
2023-01-19T05:26:10.470Z,3.50
2023-01-19T05:28:55.284Z,3.30
2023-01-19T05:31:23.970Z,3.13
2023-01-19T05:33:52.774Z,3.63
2023-01-19T06:08:39.169Z,3.70
2023-01-19T06:11:28.574Z,3.63
2023-01-19T06:13:57.031Z,4.80
2023-01-19T06:16:25.980Z,5.20
2023-01-19T06:18:55.957Z,3.60
2023-01-19T06:21:24.499Z,3.50
2023-01-19T06:23:54.667Z,3.60
2023-01-19T06:26:24.085Z,3.30
2023-01-19T06:28:52.705Z,3.57
2023-01-19T06:31:21.345Z,3.83
2023-01-19T06:33:50.310Z,3.90
2023-01-19T06:36:19.065Z,3.83
2023-01-19T06:38:47.475Z,4.30
2023-01-19T06:41:18.051Z,3.73
2023-01-19T06:43:46.627Z,4.10
2023-01-19T06:46:15.596Z,3.40
2023-01-19T06:48:46.483Z,3.50
2023-01-19T06:51:15.576Z,4.50
2023-01-19T06:54:42.665Z,3.87
2023-01-19T06:58:20.428Z,3.70
2023-01-19T07:00:30.670Z,4.73
2023-01-19T07:03:10.328Z,4.47
2023-01-19T07:05:53.374Z,3.97
2023-01-19T07:08:44.914Z,4.47
2023-01-19T07:11:40.142Z,3.47
2023-01-19T07:14:16.611Z,3.97
2023-01-19T07:17:03.183Z,3.53
2023-01-19T07:20:26.950Z,3.70
2023-01-19T07:23:22.285Z,4.83
2023-01-19T07:26:05.949Z,3.27
2023-01-19T07:28:34.893Z,4.70
2023-01-19T07:31:05.601Z,3.13
2023-01-19T07:33:36.150Z,3.67
2023-01-19T07:36:04.728Z,3.87
2023-01-19T07:38:36.489Z,3.43
2023-01-19T07:41:57.382Z,3.53
2023-01-19T07:50:52.331Z,2.63
2023-01-19T07:56:09.861Z,4.20
2023-01-19T07:58:46.133Z,3.73
2023-01-19T08:01:15.452Z,4.47
2023-01-19T08:03:46.597Z,3.80
2023-01-19T08:06:19.945Z,4.00
2023-01-19T08:08:48.464Z,3.30
2023-01-19T08:11:16.963Z,3.20
2023-01-19T08:13:45.530Z,3.70
2023-01-19T08:16:14.228Z,3.60
2023-01-19T08:18:49.701Z,4.13
2023-01-19T08:21:19.867Z,3.93
2023-01-19T08:23:57.322Z,3.53
2023-01-19T08:26:30.057Z,4.87
2023-01-19T08:28:59.475Z,3.60
2023-01-19T08:31:28.178Z,3.80
2023-01-19T08:33:57.149Z,3.60
2023-01-19T08:36:27.135Z,2.63
2023-01-19T08:39:03.152Z,2.10
2023-01-19T08:41:32.772Z,3.73
2023-01-19T08:44:01.298Z,3.17
2023-01-19T08:46:29.727Z,3.23
2023-01-19T08:48:58.339Z,3.60
2023-01-19T08:51:28.343Z,4.23
2023-01-19T08:53:57.579Z,3.77
2023-01-19T08:56:36.604Z,4.63
2023-01-19T08:59:09.843Z,3.97
2023-01-19T09:01:41.164Z,3.63
2023-01-19T09:04:10.142Z,2.93
2023-01-19T09:06:44.892Z,4.10
2023-01-19T09:09:13.527Z,4.30
2023-01-19T09:11:42.510Z,3.70
2023-01-19T09:14:10.895Z,4.70
2023-01-19T09:16:47.002Z,3.57
2023-01-19T09:19:15.973Z,3.17
2023-01-19T09:21:48.761Z,3.47
2023-01-19T09:24:17.542Z,3.50
2023-01-19T09:26:50.963Z,3.37
2023-01-19T09:29:19.582Z,2.90
2023-01-19T09:31:50.986Z,3.30
2023-01-19T09:34:22.913Z,2.80
2023-01-19T09:36:55.858Z,2.73
2023-01-19T09:39:24.332Z,2.97
2023-01-19T09:41:57.826Z,4.10
2023-01-19T09:44:30.729Z,3.63
2023-01-19T09:47:05.942Z,3.30
2023-01-19T09:49:37.103Z,2.73
2023-01-19T09:52:07.822Z,2.83
2023-01-19T09:54:41.168Z,3.27
2023-01-19T09:57:11.688Z,3.00
2023-01-19T09:59:40.307Z,2.80
2023-01-19T10:02:15.784Z,2.43
2023-01-19T10:04:45.297Z,3.13
2023-01-19T10:07:23.726Z,2.77
2023-01-19T10:12:47.861Z,3.60
2023-01-19T10:15:21.453Z,3.20
2023-01-19T10:17:54.901Z,2.87
2023-01-19T10:20:26.587Z,3.10
2023-01-19T10:23:20.171Z,3.00
2023-01-19T10:25:50.573Z,2.70
2023-01-19T10:28:34.371Z,2.87
2023-01-19T10:31:05.150Z,2.57
2023-01-19T10:33:35.407Z,2.60
2023-01-19T10:36:05.977Z,3.17
2023-01-19T10:38:37.217Z,2.87
2023-01-19T10:41:13.539Z,2.80
2023-01-19T10:43:43.633Z,2.20
2023-01-19T10:46:25.465Z,2.23
2023-01-19T10:48:59.274Z,2.40
2023-01-19T10:51:28.002Z,2.40
2023-01-19T10:54:02.894Z,2.63
2023-01-19T10:56:35.924Z,2.60
2023-01-19T10:59:05.670Z,2.80
2023-01-19T11:01:37.137Z,1.77
2023-01-19T11:04:21.263Z,1.90
2023-01-19T11:06:49.832Z,2.10
2023-01-19T11:09:21.251Z,2.10
2023-01-19T11:11:51.175Z,2.17
2023-01-19T11:14:21.429Z,2.30
2023-01-19T11:16:51.635Z,1.70
2023-01-19T11:19:23.866Z,2.07
2023-01-19T11:21:52.725Z,2.10
2023-01-19T11:24:22.853Z,1.90
2023-01-19T11:26:52.232Z,2.03
2023-01-19T11:29:22.051Z,2.60
2023-01-19T11:31:50.754Z,2.07
2023-01-19T11:34:26.556Z,2.63
2023-01-19T11:36:59.056Z,2.10
2023-01-19T11:39:29.904Z,1.70
2023-01-19T11:42:01.049Z,1.60
2023-01-19T11:44:31.210Z,1.90
2023-01-19T11:47:01.734Z,2.30
2023-01-19T11:49:33.869Z,1.70
2023-01-19T11:52:05.090Z,1.27
2023-01-19T11:54:38.336Z,1.43
2023-01-19T11:57:12.702Z,1.53
2023-01-19T11:59:45.471Z,2.23
2023-01-19T12:02:19.843Z,1.30
2023-01-19T12:04:49.203Z,1.70
2023-01-19T12:07:29.041Z,1.30
2023-01-19T12:10:04.897Z,1.60
2023-01-19T12:12:35.309Z,1.53
2023-01-19T12:15:06.233Z,1.60
2023-01-19T12:17:45.603Z,1.43
2023-01-19T12:20:20.670Z,1.47
2023-01-19T12:22:55.458Z,1.83
2023-01-19T12:25:29.907Z,1.93
2023-01-19T12:28:21.324Z,1.30
2023-01-19T12:31:09.877Z,1.27
2023-01-19T12:33:48.771Z,1.13
2023-01-19T12:36:33.510Z,1.50
2023-01-19T12:39:06.595Z,1.20
2023-01-19T12:41:42.222Z,1.40
2023-01-19T12:44:44.508Z,1.60
2023-01-19T12:51:24.680Z,1.30
2023-01-19T12:54:08.900Z,1.13
2023-01-19T12:57:03.248Z,1.30
2023-01-19T12:59:58.128Z,1.63
2023-01-19T13:02:50.829Z,1.30
2023-01-19T13:05:58.350Z,2.10
2023-01-19T13:08:53.479Z,1.80
2023-01-19T13:18:30.855Z,1.70
2023-01-19T13:22:08.230Z,1.53
2023-01-19T13:25:46.416Z,1.40
2023-01-19T13:28:03.891Z,1.07
2023-01-19T13:30:52.715Z,2.70
2023-01-19T13:33:52.175Z,1.70
2023-01-19T13:36:28.920Z,1.80
2023-01-19T13:39:06.631Z,1.70
2023-01-19T13:41:48.434Z,1.43
2023-01-19T13:47:39.341Z,1.43
2023-01-19T13:50:26.176Z,1.87
2023-01-19T13:52:56.780Z,1.43
2023-01-19T13:55:27.581Z,1.33
2023-01-19T13:59:13.368Z,2.33
2023-01-19T14:02:09.834Z,1.43
2023-01-19T14:08:17.735Z,1.50
2023-01-19T14:15:13.384Z,1.63
2023-01-19T14:17:42.463Z,0.80
2023-01-19T14:20:37.723Z,1.00
2023-01-19T14:33:08.424Z,1.23
2023-01-19T14:46:14.991Z,1.30
2023-01-19T15:20:41.805Z,1.13
2023-01-19T15:24:02.021Z,1.50
2023-01-19T15:30:12.044Z,1.10
